createdAt,value
2018-02-09T00:01:21.883Z,99614.19
2018-02-09T00:03:49.408Z,99616.06
2018-02-09T00:06:16.947Z,99615.53
2018-02-09T00:08:44.520Z,99610.17
2018-02-09T00:11:12.085Z,99614.63
2018-02-09T00:13:39.603Z,99613.11
2018-02-09T00:16:07.115Z,99614.63
2018-02-09T00:18:34.678Z,99609.42
2018-02-09T00:21:02.221Z,99611.53
2018-02-09T00:23:29.776Z,99604.61
2018-02-09T00:25:57.307Z,99608.73
2018-02-09T00:28:24.865Z,99598.16
2018-02-09T00:30:52.414Z,99593.52
2018-02-09T00:33:19.923Z,99593.42
2018-02-09T00:35:47.486Z,99596.98
2018-02-09T00:38:15.008Z,99597.83
2018-02-09T00:40:42.586Z,99589.23
2018-02-09T00:43:10.105Z,99591.51
2018-02-09T00:45:37.666Z,99590.16
2018-02-09T00:48:05.195Z,99590.06
2018-02-09T00:50:32.753Z,99586.12
2018-02-09T00:53:00.292Z,99586.19
2018-02-09T00:55:27.842Z,99582.83
2018-02-09T00:57:55.414Z,99579.71
2018-02-09T01:00:22.942Z,99573.59
2018-02-09T01:02:50.518Z,99576.43
2018-02-09T01:05:18.120Z,99580.06
2018-02-09T01:07:45.651Z,99587.06
2018-02-09T01:10:13.195Z,99587.98
2018-02-09T01:12:40.745Z,99589.34
2018-02-09T01:15:08.304Z,99585.89
2018-02-09T01:17:35.814Z,99592.35
2018-02-09T01:20:03.805Z,99588.84
2018-02-09T01:22:31.600Z,99582.61
2018-02-09T01:24:59.670Z,99582.53
2018-02-09T01:27:27.209Z,99579.14
2018-02-09T01:29:54.720Z,99571.75
2018-02-09T01:32:22.294Z,99569.72
2018-02-09T01:34:49.821Z,99564.34
2018-02-09T01:37:17.966Z,99564.02
2018-02-09T01:39:45.929Z,99559.20
2018-02-09T01:42:13.434Z,99558.52
2018-02-09T01:44:40.988Z,99555.73
2018-02-09T01:47:08.520Z,99555.58
2018-02-09T01:49:36.033Z,99554.98
2018-02-09T01:52:03.599Z,99553.89
2018-02-09T01:54:31.134Z,99556.49
2018-02-09T01:56:58.693Z,99556.02
2018-02-09T01:59:26.513Z,99552.72
2018-02-09T02:01:54.025Z,99550.80
2018-02-09T02:04:21.545Z,99551.72
2018-02-09T02:06:49.104Z,99549.70
2018-02-09T02:09:16.662Z,99548.28
2018-02-09T02:11:44.198Z,99545.69
2018-02-09T02:14:11.767Z,99545.59
2018-02-09T02:16:39.320Z,99541.95
2018-02-09T02:19:06.837Z,99539.80
2018-02-09T02:21:34.406Z,99539.30
2018-02-09T02:24:01.929Z,99538.22
2018-02-09T02:26:29.451Z,99538.30
2018-02-09T02:28:57.007Z,99538.80
2018-02-09T02:31:24.572Z,99533.84
2018-02-09T02:33:52.079Z,99532.58
2018-02-09T02:36:19.636Z,99528.20
2018-02-09T02:38:47.158Z,99524.99
2018-02-09T02:41:14.893Z,99519.70
2018-02-09T02:43:42.434Z,99512.87
2018-02-09T02:46:09.956Z,99508.74
2018-02-09T02:48:37.527Z,99504.90
2018-02-09T02:51:05.093Z,99508.84
2018-02-09T02:53:32.682Z,99503.03
2018-02-09T02:56:00.187Z,99506.41
2018-02-09T02:58:27.753Z,99493.38
2018-02-09T03:00:55.326Z,99494.81
2018-02-09T03:03:22.849Z,99488.09
2018-02-09T03:05:50.412Z,99488.22
2018-02-09T03:08:17.969Z,99488.77
2018-02-09T03:10:45.538Z,99476.98
2018-02-09T03:13:13.099Z,99475.31
2018-02-09T03:15:40.658Z,99476.07
2018-02-09T03:18:08.220Z,99475.73
2018-02-09T03:20:35.728Z,99468.77
2018-02-09T03:23:03.244Z,99475.30
2018-02-09T03:25:30.823Z,99468.86
2018-02-09T03:27:58.956Z,99464.38
2018-02-09T03:30:26.685Z,99462.61
2018-02-09T03:32:54.228Z,99459.40
2018-02-09T03:35:21.755Z,99454.98
2018-02-09T03:37:49.320Z,99454.32
2018-02-09T03:40:16.845Z,99451.56
2018-02-09T03:42:44.367Z,99450.05
2018-02-09T03:45:11.907Z,99454.93
2018-02-09T03:47:39.424Z,99448.80
2018-02-09T03:50:07.001Z,99451.22
2018-02-09T03:52:34.530Z,99440.91
2018-02-09T03:55:02.073Z,99443.43
2018-02-09T03:57:29.591Z,99439.92
2018-02-09T03:59:57.140Z,99442.35
2018-02-09T04:02:24.688Z,99437.72
2018-02-09T04:04:52.278Z,99428.16
2018-02-09T04:07:19.840Z,99433.61
2018-02-09T04:09:47.363Z,99427.73
2018-02-09T04:12:15.096Z,99430.25
2018-02-09T04:14:42.626Z,99429.14
2018-02-09T04:17:10.191Z,99424.19
2018-02-09T04:19:37.700Z,99420.17
2018-02-09T04:22:05.231Z,99414.97
2018-02-09T04:24:32.771Z,99417.79
2018-02-09T04:27:00.289Z,99418.80
2018-02-09T04:29:27.927Z,99422.35
2018-02-09T04:31:55.449Z,99412.50
2018-02-09T04:34:22.960Z,99419.14
2018-02-09T04:36:50.502Z,99416.36
2018-02-09T04:39:18.017Z,99419.88
2018-02-09T04:41:45.533Z,99418.12
2018-02-09T04:44:13.075Z,99418.19
2018-02-09T04:46:40.630Z,99429.74
2018-02-09T04:49:08.140Z,99435.95
2018-02-09T04:51:35.690Z,99421.77
2018-02-09T04:54:03.229Z,99426.31
2018-02-09T04:56:30.785Z,99414.53
2018-02-09T04:58:58.339Z,99422.87
2018-02-09T05:01:26.764Z,99417.84
2018-02-09T05:03:54.311Z,99414.55
2018-02-09T05:06:21.865Z,99410.86
2018-02-09T05:08:49.576Z,99408.25
2018-02-09T05:11:17.113Z,99407.71
2018-02-09T05:13:44.674Z,99398.33
2018-02-09T05:16:12.229Z,99404.67
2018-02-09T05:18:39.787Z,99397.81
2018-02-09T05:21:07.319Z,99402.45
2018-02-09T05:23:34.906Z,99397.30
2018-02-09T05:26:02.429Z,99395.93
2018-02-09T05:28:29.981Z,99393.57
2018-02-09T05:30:57.547Z,99393.24
2018-02-09T05:33:25.073Z,99385.69
2018-02-09T05:35:52.754Z,99392.81
2018-02-09T05:38:20.296Z,99385.10
2018-02-09T05:40:47.911Z,99383.39
2018-02-09T05:43:15.434Z,99380.80
2018-02-09T05:45:43.014Z,99377.36
2018-02-09T05:48:10.560Z,99372.83
2018-02-09T05:50:38.092Z,99372.33
2018-02-09T05:53:05.653Z,99364.75
2018-02-09T05:55:33.201Z,99367.94
2018-02-09T05:58:00.711Z,99368.16
2018-02-09T06:00:28.278Z,99363.34
2018-02-09T06:02:56.846Z,99367.38
2018-02-09T06:05:24.352Z,99363.63
2018-02-09T06:07:51.897Z,99361.59
2018-02-09T06:10:19.413Z,99355.81
2018-02-09T06:12:46.956Z,99354.86
2018-02-09T06:15:14.468Z,99352.67
2018-02-09T06:17:42.016Z,99356.09
2018-02-09T06:20:09.531Z,99356.91
2018-02-09T06:22:37.080Z,99349.76
2018-02-09T06:25:04.591Z,99351.79
2018-02-09T06:27:32.095Z,99349.69
2018-02-09T06:29:59.645Z,99349.16
2018-02-09T06:32:27.708Z,99350.34
2018-02-09T06:34:55.266Z,99350.45
2018-02-09T06:37:22.785Z,99350.44
2018-02-09T06:39:50.333Z,99353.40
2018-02-09T06:42:17.845Z,99348.02
2018-02-09T06:44:45.401Z,99349.36
2018-02-09T06:47:12.944Z,99341.12
2018-02-09T06:49:40.470Z,99346.27
2018-02-09T06:52:08.020Z,99344.59
2018-02-09T06:54:35.550Z,99341.73
2018-02-09T06:57:03.082Z,99344.88
2018-02-09T06:59:30.658Z,99339.23
2018-02-09T07:01:58.186Z,99340.25
2018-02-09T07:04:25.753Z,99334.97
2018-02-09T07:06:53.264Z,99333.52
2018-02-09T07:09:20.772Z,99330.86
2018-02-09T07:11:48.310Z,99333.71
2018-02-09T07:14:15.830Z,99332.88
2018-02-09T07:16:43.349Z,99328.84
2018-02-09T07:19:10.900Z,99325.07
2018-02-09T07:21:38.644Z,99315.45
2018-02-09T07:24:06.150Z,99317.55
2018-02-09T07:26:33.692Z,99320.83
2018-02-09T07:29:01.244Z,99321.87
2018-02-09T09:09:21.468Z,99254.64
2018-02-09T09:11:49.044Z,99253.91
2018-02-09T09:14:16.574Z,99258.28
2018-02-09T09:16:44.117Z,99258.66
2018-02-09T09:19:11.823Z,99247.34
2018-02-09T09:21:39.380Z,99245.56
2018-02-09T09:24:06.979Z,99249.89
2018-02-09T09:26:34.520Z,99246.70
2018-02-09T09:29:02.080Z,99247.33
2018-02-09T09:31:29.600Z,99249.36
2018-02-09T09:33:57.149Z,99255.07
2018-02-09T09:36:24.697Z,99252.28
2018-02-09T09:38:52.691Z,99252.02
2018-02-09T09:41:20.651Z,99249.23
2018-02-09T09:43:48.199Z,99249.06
2018-02-09T09:46:15.730Z,99242.11
2018-02-09T09:48:43.546Z,99237.31
2018-02-09T09:51:11.681Z,99233.55
2018-02-09T09:53:39.238Z,99230.03
2018-02-09T09:56:07.201Z,99221.38
2018-02-09T09:58:34.744Z,99220.19
2018-02-09T10:01:02.778Z,99226.33
2018-02-09T10:03:30.313Z,99228.27
2018-02-09T10:05:57.892Z,99228.55
2018-02-09T10:08:25.459Z,99215.27
2018-02-09T10:10:53.018Z,99219.98
2018-02-09T10:13:20.785Z,99221.98
2018-02-09T10:15:48.354Z,99219.36
2018-02-09T10:18:15.884Z,99214.69
2018-02-09T10:20:43.409Z,99219.48
2018-02-09T10:23:10.962Z,99214.29
2018-02-09T10:25:38.512Z,99217.11
2018-02-09T10:28:06.094Z,99211.61
2018-02-09T10:30:33.738Z,99217.50
2018-02-09T10:33:01.310Z,99210.13
2018-02-09T10:35:28.815Z,99213.20
2018-02-09T10:37:56.558Z,99216.97
2018-02-09T10:40:24.104Z,99211.45
2018-02-09T10:42:51.626Z,99204.84
2018-02-09T10:45:19.187Z,99206.24
2018-02-09T10:47:46.709Z,99202.19
2018-02-09T10:50:14.271Z,99200.75
2018-02-09T10:52:41.794Z,99204.41
2018-02-09T10:55:09.327Z,99202.86
2018-02-09T10:57:36.922Z,99203.11
2018-02-09T11:00:04.526Z,99195.79
2018-02-09T11:02:32.050Z,99192.02
2018-02-09T11:04:59.599Z,99201.60
2018-02-09T11:07:27.690Z,99194.92
2018-02-09T11:09:55.221Z,99193.05
2018-02-09T11:12:22.809Z,99193.25
2018-02-09T11:14:50.308Z,99189.33
2018-02-09T11:17:17.852Z,99194.41
2018-02-09T11:19:45.394Z,99189.28
2018-02-09T11:22:12.951Z,99180.58
2018-02-09T11:24:40.472Z,99187.47
2018-02-09T11:27:08.044Z,99184.60
2018-02-09T11:29:35.559Z,99177.01
2018-02-09T11:32:03.059Z,99169.29
2018-02-09T11:34:30.625Z,99176.45
2018-02-09T11:36:58.147Z,99162.98
2018-02-09T11:39:25.676Z,99168.09
2018-02-09T11:41:53.237Z,99162.38
2018-02-09T11:44:20.971Z,99168.73
2018-02-09T11:46:48.517Z,99161.56
2018-02-09T11:49:16.038Z,99166.86
2018-02-09T11:51:43.605Z,99153.98
2018-02-09T11:54:11.111Z,99161.23
2018-02-09T11:56:38.948Z,99158.30
2018-02-09T11:59:06.514Z,99168.88
2018-02-09T12:01:34.022Z,99161.91
2018-02-09T12:04:01.574Z,99161.56
2018-02-09T12:06:29.115Z,99157.52
2018-02-09T12:08:56.659Z,99157.55
2018-02-09T12:11:24.244Z,99161.39
2018-02-09T12:13:51.758Z,99155.63
2018-02-09T12:16:19.353Z,99155.52
2018-02-09T12:18:46.864Z,99156.98
2018-02-09T12:21:14.441Z,99161.73
2018-02-09T12:23:42.012Z,99156.31
2018-02-09T12:26:09.580Z,99154.81
2018-02-09T12:28:37.123Z,99143.81
2018-02-09T12:31:04.976Z,99145.48
2018-02-09T12:33:32.502Z,99140.51
2018-02-09T12:36:00.352Z,99143.91
2018-02-09T12:38:28.175Z,99141.65
2018-02-09T12:40:56.159Z,99138.06
2018-02-09T12:43:24.081Z,99131.92
2018-02-09T12:45:51.652Z,99139.91
2018-02-09T12:48:19.181Z,99135.52
2018-02-09T12:50:46.983Z,99129.77
2018-02-09T12:53:15.830Z,99123.56
2018-02-09T12:55:43.690Z,99120.20
2018-02-09T12:58:11.592Z,99114.91
2018-02-09T13:00:39.139Z,99120.20
2018-02-09T13:03:06.872Z,99112.59
2018-02-09T13:05:34.781Z,99107.69
2018-02-09T13:08:02.327Z,99102.64
2018-02-09T13:10:29.894Z,99097.08
2018-02-09T13:13:05.167Z,99100.05
2018-02-09T13:15:33.604Z,99101.13
2018-02-09T13:18:01.134Z,99096.38
2018-02-09T13:20:28.694Z,99089.88
2018-02-09T13:23:07.955Z,99090.72
2018-02-09T13:25:35.620Z,99086.86
2018-02-09T13:28:03.143Z,99085.08
2018-02-09T13:30:30.730Z,99087.39
2018-02-09T13:33:10.108Z,99087.60
2018-02-09T13:35:37.646Z,99087.27
2018-02-09T13:38:05.202Z,99087.02
2018-02-09T13:40:32.817Z,99080.00
2018-02-09T13:43:01.179Z,99078.09
2018-02-09T13:45:28.735Z,99079.80
2018-02-09T13:47:56.269Z,99080.23
2018-02-09T13:50:23.860Z,99078.42
2018-02-09T13:52:51.383Z,99067.21
2018-02-09T13:55:18.964Z,99067.95
2018-02-09T13:57:46.474Z,99070.33
2018-02-09T14:00:14.039Z,99067.03
2018-02-09T14:02:41.570Z,99055.01
2018-02-09T14:05:09.135Z,99064.27
2018-02-09T14:07:36.742Z,99060.65
2018-02-09T14:10:04.258Z,99052.77
2018-02-09T14:12:31.804Z,99057.52
2018-02-09T14:14:59.389Z,99057.91
2018-02-09T14:17:26.981Z,99051.17
2018-02-09T14:19:54.566Z,99060.93
2018-02-09T14:22:22.221Z,99057.95
2018-02-09T14:24:49.778Z,99054.55
2018-02-09T14:27:17.604Z,99054.44
2018-02-09T14:29:45.498Z,99057.38
2018-02-09T14:32:13.029Z,99052.98
2018-02-09T14:34:40.604Z,99057.77
2018-02-09T14:37:08.150Z,99057.34
2018-02-09T14:43:22.495Z,99055.75
2018-02-09T14:45:50.030Z,99059.12
2018-02-09T14:48:17.634Z,99057.14
2018-02-09T14:50:45.146Z,99060.41
2018-02-09T14:53:12.676Z,99057.42
2018-02-09T14:55:40.203Z,99061.32
2018-02-09T14:58:07.723Z,99065.83
2018-02-09T15:00:35.286Z,99066.26
2018-02-09T15:03:02.838Z,99067.67
2018-02-09T15:05:30.431Z,99065.41
2018-02-09T15:07:57.949Z,99060.43
2018-02-09T15:10:25.471Z,99065.62
2018-02-09T15:12:52.972Z,99062.49
2018-02-09T15:15:20.515Z,99061.67
2018-02-09T15:17:48.015Z,99063.83
2018-02-09T15:20:15.798Z,99060.04
2018-02-09T15:22:43.299Z,99063.95
2018-02-09T15:25:10.852Z,99054.79
2018-02-09T15:27:38.375Z,99057.13
2018-02-09T15:30:05.884Z,99054.75
2018-02-09T15:32:33.435Z,99056.81
2018-02-09T15:35:00.995Z,99055.28
2018-02-09T15:37:28.602Z,99051.28
2018-02-09T15:39:56.100Z,99050.85
2018-02-09T15:42:23.645Z,99049.80
2018-02-09T15:44:51.150Z,99041.73
2018-02-09T15:47:18.704Z,99042.66
2018-02-09T15:49:46.270Z,99037.73
2018-02-09T15:52:13.799Z,99043.36
2018-02-09T15:54:41.322Z,99048.68
2018-02-09T15:57:08.869Z,99044.62
2018-02-09T15:59:36.423Z,99044.22
2018-02-09T16:02:04.024Z,99041.73
2018-02-09T16:04:31.529Z,99043.16
2018-02-09T16:06:59.069Z,99042.02
2018-02-09T16:09:26.585Z,99045.03
2018-02-09T16:11:54.133Z,99045.53
2018-02-09T16:14:21.684Z,99047.48
2018-02-09T16:16:49.195Z,99043.44
2018-02-09T16:19:17.142Z,99036.05
2018-02-09T16:21:44.678Z,99045.38
2018-02-09T16:24:12.211Z,99046.63
2018-02-09T16:26:39.752Z,99048.58
2018-02-09T16:29:07.270Z,99048.58
2018-02-09T16:31:34.802Z,99046.77
2018-02-09T16:34:02.354Z,99052.69
2018-02-09T16:36:29.869Z,99047.40
2018-02-09T16:38:57.416Z,99054.53
2018-02-09T16:41:24.937Z,99058.78
2018-02-09T16:43:52.471Z,99056.83
2018-02-09T16:46:20.017Z,99057.33
2018-02-09T16:48:47.515Z,99068.69
2018-02-09T16:51:15.059Z,99059.32
2018-02-09T16:53:42.814Z,99052.51
2018-02-09T16:56:10.668Z,99054.78
2018-02-09T16:58:38.230Z,99064.64
2018-02-09T17:01:05.763Z,99066.62
2018-02-09T17:03:33.397Z,99059.78
2018-02-09T17:06:01.095Z,99070.74
2018-02-09T17:08:29.659Z,99069.60
2018-02-09T17:10:57.702Z,99075.23
2018-02-09T17:13:26.345Z,99060.97
2018-02-09T17:15:53.965Z,99066.97
2018-02-09T17:18:21.497Z,99062.66
2018-02-09T17:20:49.057Z,99066.56
2018-02-09T17:23:16.610Z,99065.21
2018-02-09T17:25:44.207Z,99064.33
2018-02-09T17:28:11.732Z,99061.95
2018-02-09T17:30:39.303Z,99064.05
2018-02-09T17:33:11.578Z,99068.08
2018-02-09T17:35:40.956Z,99071.34
2018-02-09T17:38:08.665Z,99073.09
2018-02-09T17:40:36.455Z,99083.22
2018-02-09T17:43:03.991Z,99078.11
2018-02-09T17:45:31.539Z,99080.09
2018-02-09T17:47:59.041Z,99089.15
2018-02-09T17:50:26.577Z,99089.50
2018-02-09T17:52:54.148Z,99090.35
2018-02-09T17:55:21.680Z,99094.83
2018-02-09T17:57:49.229Z,99094.86
2018-02-09T18:00:16.736Z,99099.66
2018-02-09T18:02:44.263Z,99095.86
2018-02-09T18:05:11.874Z,99096.42
2018-02-09T18:07:39.808Z,99101.11
2018-02-09T18:10:07.338Z,99102.45
2018-02-09T18:12:34.892Z,99102.38
2018-02-09T18:15:02.396Z,99105.72
2018-02-09T18:17:30.856Z,99112.08
2018-02-09T18:19:58.730Z,99109.48
2018-02-09T18:22:26.273Z,99105.68
2018-02-09T18:24:53.831Z,99106.07
2018-02-09T18:27:21.705Z,99114.17
2018-02-09T18:29:49.208Z,99112.28
2018-02-09T18:32:16.752Z,99116.20
2018-02-09T18:34:44.270Z,99113.39
2018-02-09T18:37:11.944Z,99114.28
2018-02-09T18:39:39.525Z,99113.92
2018-02-09T18:42:07.061Z,99121.77
2018-02-09T18:44:34.599Z,99114.88
2018-02-09T18:47:02.138Z,99114.81
2018-02-09T18:49:29.658Z,99112.08
2018-02-09T18:51:57.167Z,99107.20
2018-02-09T18:54:24.729Z,99111.19
2018-02-09T18:56:52.225Z,99112.11
2018-02-09T18:59:19.809Z,99106.84
2018-02-09T19:01:47.317Z,99105.64
2018-02-09T19:04:14.860Z,99110.19
2018-02-09T19:06:42.367Z,99109.16
2018-02-09T19:09:10.152Z,99113.45
2018-02-09T19:11:38.074Z,99112.73
2018-02-09T19:14:06.444Z,99118.59
2018-02-09T19:16:34.442Z,99127.11
2018-02-09T19:19:03.028Z,99124.14
2018-02-09T19:21:30.966Z,99129.17
2018-02-09T19:23:58.846Z,99127.84
2018-02-09T19:26:26.658Z,99124.14
2018-02-09T19:28:54.501Z,99133.34
2018-02-09T19:31:22.428Z,99128.69
2018-02-09T19:33:50.555Z,99136.02
2018-02-09T19:36:18.380Z,99132.53
2018-02-09T19:38:46.205Z,99138.26
2018-02-09T19:41:14.240Z,99141.02
2018-02-09T19:43:42.210Z,99141.57
2018-02-09T19:46:10.139Z,99142.70
2018-02-09T19:48:38.106Z,99151.08
2018-02-09T19:51:06.014Z,99151.44
2018-02-09T19:53:33.907Z,99147.20
2018-02-09T19:56:02.005Z,99146.87
2018-02-09T19:58:29.554Z,99137.83
2018-02-09T20:00:57.498Z,99153.52
2018-02-09T20:03:25.226Z,99145.16
2018-02-09T20:05:53.143Z,99150.11
2018-02-09T20:08:21.067Z,99152.59
2018-02-09T20:10:48.674Z,99153.61
2018-02-09T20:13:16.639Z,99150.69
2018-02-09T20:15:44.573Z,99149.19
2018-02-09T20:18:12.355Z,99150.64
2018-02-09T20:20:40.358Z,99152.71
2018-02-09T20:23:08.564Z,99148.93
2018-02-09T20:25:36.721Z,99153.03
2018-02-09T20:28:04.633Z,99144.94
2018-02-09T20:30:32.569Z,99148.41
2018-02-09T20:33:00.754Z,99147.50
2018-02-09T20:35:29.025Z,99144.28
2018-02-09T20:37:57.513Z,99143.59
2018-02-09T20:40:25.198Z,99145.68
2018-02-09T20:42:52.696Z,99147.63
2018-02-09T20:45:20.254Z,99146.77
2018-02-09T20:47:47.766Z,99152.77
2018-02-09T20:50:15.279Z,99145.41
2018-02-09T20:52:42.855Z,99149.25
2018-02-09T20:55:10.808Z,99137.42
2018-02-09T20:57:38.369Z,99149.19
2018-02-09T21:00:05.880Z,99149.30
2018-02-09T21:02:33.833Z,99148.97
2018-02-09T21:05:01.774Z,99146.33
2018-02-09T21:07:29.764Z,99150.54
2018-02-09T21:09:57.637Z,99143.80
2018-02-09T21:12:25.696Z,99148.70
2018-02-09T21:14:53.698Z,99149.56
2018-02-09T21:17:21.628Z,99148.22
2018-02-09T21:19:49.653Z,99152.04
2018-02-09T21:22:18.088Z,99152.04
2018-02-09T21:24:45.603Z,99153.23
2018-02-09T21:27:13.280Z,99146.55
2018-02-09T21:29:40.846Z,99150.05
2018-02-09T21:32:08.381Z,99151.56
2018-02-09T21:34:35.912Z,99153.93
2018-02-09T21:37:03.415Z,99157.22
2018-02-09T21:39:30.918Z,99152.95
2018-02-09T21:41:58.473Z,99156.47
2018-02-09T21:44:25.998Z,99154.70
2018-02-09T21:46:53.544Z,99161.10
2018-02-09T21:49:21.079Z,99156.88
2018-02-09T21:51:48.596Z,99165.44
2018-02-09T21:54:16.174Z,99154.25
2018-02-09T21:56:43.716Z,99157.31
2018-02-09T21:59:11.230Z,99161.08
2018-02-09T22:01:38.737Z,99161.47
2018-02-09T22:04:06.277Z,99161.41
2018-02-09T22:06:33.918Z,99154.52
2018-02-09T22:09:01.503Z,99157.37
2018-02-09T22:11:29.000Z,99162.70
2018-02-09T22:13:56.526Z,99161.35
2018-02-09T22:16:24.075Z,99159.16
2018-02-09T22:18:51.824Z,99162.54
2018-02-09T22:21:19.376Z,99165.17
2018-02-09T22:23:46.867Z,99160.16
2018-02-09T22:26:14.430Z,99160.48
2018-02-09T22:28:41.967Z,99154.20
2018-02-09T22:31:09.503Z,99165.98
2018-02-09T22:33:37.051Z,99160.91
2018-02-09T22:36:04.606Z,99161.13
2018-02-09T22:38:32.249Z,99167.80
2018-02-09T22:41:00.109Z,99165.65
2018-02-09T22:43:27.834Z,99169.58
2018-02-09T22:45:55.383Z,99165.05
2018-02-09T22:48:22.957Z,99171.29
2018-02-09T22:50:50.515Z,99166.56
2018-02-09T22:53:18.119Z,99168.61
2018-02-09T22:55:45.624Z,99172.05
2018-02-09T22:58:13.209Z,99172.75
2018-02-09T23:00:40.808Z,99170.09
2018-02-09T23:03:08.365Z,99171.34
2018-02-09T23:05:35.892Z,99166.98
2018-02-09T23:08:03.533Z,99177.84
2018-02-09T23:10:31.154Z,99179.89
2018-02-09T23:12:58.675Z,99174.67
2018-02-09T23:15:26.317Z,99177.20
2018-02-09T23:17:53.832Z,99176.61
2018-02-09T23:20:21.390Z,99178.48
2018-02-09T23:22:48.917Z,99174.81
2018-02-09T23:25:16.500Z,99183.53
2018-02-09T23:27:44.051Z,99183.00
2018-02-09T23:30:11.597Z,99184.62
2018-02-09T23:32:39.163Z,99182.31
2018-02-09T23:35:06.770Z,99179.31
2018-02-09T23:37:34.359Z,99183.00
2018-02-09T23:40:01.987Z,99179.23
2018-02-09T23:42:29.579Z,99175.89
2018-02-09T23:44:57.166Z,99176.70
2018-02-09T23:47:25.003Z,99171.65
2018-02-09T23:49:52.626Z,99171.22
2018-02-09T23:52:20.755Z,99174.11
2018-02-09T23:54:49.287Z,99171.09
2018-02-09T23:57:17.098Z,99176.55
2018-02-09T23:59:44.715Z,99168.90
